createdAt,value
2019-01-16T00:02:14.321Z,67.37
2019-01-16T00:05:03.077Z,68.89
2019-01-16T00:07:54.774Z,68.41
2019-01-16T00:10:58.328Z,69.25
2019-01-16T00:14:02.442Z,68.67
2019-01-16T00:16:51.067Z,68.81
2019-01-16T00:19:40.276Z,68.05
2019-01-16T00:22:39.304Z,68.57
2019-01-16T00:25:28.316Z,67.70
2019-01-16T00:28:33.467Z,67.90
2019-01-16T00:31:40.348Z,67.71
2019-01-16T00:34:43.565Z,66.87
2019-01-16T00:37:47.373Z,67.08
2019-01-16T00:40:47.918Z,67.34
2019-01-16T00:43:36.617Z,68.15
2019-01-16T00:46:25.495Z,66.87
2019-01-16T00:49:20.664Z,67.70
2019-01-16T00:52:15.497Z,67.85
2019-01-16T00:55:15.730Z,68.25
2019-01-16T00:58:05.129Z,67.58
2019-01-16T01:00:54.052Z,66.91
2019-01-16T01:03:42.745Z,66.21
2019-01-16T01:06:31.401Z,66.13
2019-01-16T01:09:35.119Z,66.52
2019-01-16T01:12:32.651Z,67.15
2019-01-16T01:15:21.796Z,66.30
2019-01-16T01:18:22.681Z,65.77
2019-01-16T01:21:11.593Z,64.98
2019-01-16T01:24:03.186Z,66.09
2019-01-16T01:27:00.644Z,64.89
2019-01-16T01:29:49.559Z,65.06
2019-01-16T01:32:54.645Z,64.97
2019-01-16T01:35:48.860Z,64.79
2019-01-16T01:38:52.540Z,65.60
2019-01-16T01:41:57.233Z,65.15
2019-01-16T01:44:48.682Z,64.85
2019-01-16T01:47:42.695Z,65.39
2019-01-16T01:50:31.213Z,65.02
2019-01-16T01:53:25.905Z,64.80
2019-01-16T01:56:26.483Z,65.23
2019-01-16T01:59:30.315Z,65.51
2019-01-16T02:02:19.180Z,65.97
2019-01-16T02:05:25.170Z,66.32
2019-01-16T02:08:22.689Z,66.04
2019-01-16T02:11:11.288Z,65.19
2019-01-16T02:14:09.157Z,64.25
2019-01-16T02:17:04.003Z,64.98
2019-01-16T02:19:58.888Z,63.76
2019-01-16T02:22:47.408Z,64.33
2019-01-16T02:25:38.929Z,64.48
2019-01-16T02:28:30.435Z,63.86
2019-01-16T02:31:30.800Z,63.95
2019-01-16T02:34:19.862Z,63.87
2019-01-16T02:37:08.595Z,64.15
2019-01-16T02:39:57.549Z,64.48
2019-01-16T02:42:46.077Z,65.21
2019-01-16T02:45:50.166Z,65.01
2019-01-16T02:48:40.124Z,66.67
2019-01-16T02:51:37.129Z,67.08
2019-01-16T02:54:26.270Z,67.22
2019-01-16T02:57:20.654Z,66.70
2019-01-16T03:00:15.590Z,65.90
2019-01-16T03:03:12.989Z,66.30
2019-01-16T03:06:13.159Z,67.68
2019-01-16T03:09:18.604Z,67.08
2019-01-16T03:12:19.266Z,66.59
2019-01-16T03:15:21.805Z,65.90
2019-01-16T03:18:19.022Z,64.96
2019-01-16T03:21:13.798Z,64.79
2019-01-16T03:24:08.271Z,64.55
2019-01-16T03:27:03.105Z,66.09
2019-01-16T03:29:55.019Z,67.04
2019-01-16T03:32:59.467Z,67.50
2019-01-16T03:35:57.166Z,68.02
2019-01-16T03:38:48.274Z,68.90
2019-01-16T03:41:37.582Z,70.08
2019-01-16T03:44:29.201Z,69.66
2019-01-16T03:47:34.735Z,70.10
2019-01-16T03:50:23.487Z,70.39
2019-01-16T03:53:18.352Z,69.79
2019-01-16T03:56:19.280Z,69.03
2019-01-16T03:59:13.728Z,70.23
2019-01-16T04:02:10.904Z,71.10
2019-01-16T04:05:14.775Z,71.31
2019-01-16T04:08:03.273Z,68.54
2019-01-16T04:10:51.992Z,68.37
2019-01-16T04:13:55.650Z,69.37
2019-01-16T04:17:02.501Z,69.34
2019-01-16T04:20:00.269Z,70.27
2019-01-16T04:22:52.351Z,68.96
2019-01-16T04:25:46.643Z,69.09
2019-01-16T04:28:44.590Z,69.71
2019-01-16T04:31:49.117Z,69.80
2019-01-16T04:34:53.853Z,68.16
2019-01-16T04:37:58.446Z,68.64
2019-01-16T04:40:47.080Z,69.04
2019-01-16T04:43:47.713Z,68.36
2019-01-16T04:46:42.030Z,67.89
2019-01-16T04:49:30.819Z,68.24
2019-01-16T04:52:22.018Z,69.19
2019-01-16T04:55:28.461Z,70.01
2019-01-16T04:58:32.577Z,69.55
2019-01-16T05:01:24.106Z,68.05
2019-01-16T05:04:13.088Z,69.05
2019-01-16T05:07:16.781Z,69.64
2019-01-16T05:10:14.345Z,68.12
2019-01-16T05:13:19.436Z,67.60
2019-01-16T05:16:14.345Z,68.30
2019-01-16T05:19:20.648Z,70.84
2019-01-16T05:22:12.200Z,71.64
2019-01-16T05:25:18.554Z,70.84
2019-01-16T05:28:19.233Z,70.32
2019-01-16T05:31:16.775Z,69.63
2019-01-16T05:34:05.637Z,68.55
2019-01-16T05:37:03.509Z,68.57
2019-01-16T05:40:08.372Z,69.37
2019-01-16T05:43:13.221Z,68.83
2019-01-16T05:46:02.149Z,70.29
2019-01-16T05:48:53.599Z,69.67
2019-01-16T05:51:42.504Z,69.41
2019-01-16T05:54:31.098Z,70.86
2019-01-16T05:57:19.846Z,70.58
2019-01-16T06:00:11.727Z,71.90
2019-01-16T06:03:08.962Z,72.20
2019-01-16T06:06:00.369Z,73.22
2019-01-16T06:08:54.826Z,73.34
2019-01-16T06:11:49.108Z,72.81
2019-01-16T06:14:38.822Z,72.15
2019-01-16T06:17:27.696Z,72.68
2019-01-16T06:20:32.584Z,72.37
2019-01-16T06:23:27.317Z,72.73
2019-01-16T06:26:28.075Z,71.11
2019-01-16T06:29:26.183Z,70.88
2019-01-16T06:32:15.420Z,71.31
2019-01-16T06:35:19.243Z,71.12
2019-01-16T06:38:10.706Z,70.84
2019-01-16T06:40:59.650Z,70.35
2019-01-16T06:43:53.653Z,71.56
2019-01-16T06:46:42.242Z,71.39
2019-01-16T06:49:43.161Z,72.57
2019-01-16T06:52:34.624Z,73.07
2019-01-16T06:55:23.389Z,72.53
2019-01-16T06:58:27.388Z,72.82
2019-01-16T07:01:21.549Z,72.07
2019-01-16T07:04:16.497Z,71.50
2019-01-16T07:07:11.204Z,70.66
2019-01-16T07:10:14.860Z,71.04
2019-01-16T07:13:19.127Z,72.50
2019-01-16T07:16:17.221Z,73.24
2019-01-16T07:19:09.077Z,72.96
2019-01-16T07:22:09.739Z,71.93
2019-01-16T07:24:58.439Z,72.81
2019-01-16T07:28:05.374Z,73.34
2019-01-16T07:31:03.335Z,72.38
2019-01-16T07:33:52.124Z,71.63
2019-01-16T07:36:43.489Z,72.80
2019-01-16T07:39:31.982Z,72.88
2019-01-16T07:42:32.443Z,72.30
2019-01-16T07:45:33.650Z,71.84
2019-01-16T07:48:28.334Z,71.49
2019-01-16T07:51:26.062Z,71.86
2019-01-16T07:54:30.209Z,71.44
2019-01-16T07:57:21.764Z,70.58
2019-01-16T08:00:13.966Z,71.08
2019-01-16T08:03:14.537Z,71.11
2019-01-16T08:06:05.866Z,71.68
2019-01-16T08:09:09.573Z,71.09
2019-01-16T08:11:58.261Z,70.89
2019-01-16T08:15:02.788Z,71.90
2019-01-16T08:18:03.692Z,72.30
2019-01-16T08:21:08.792Z,73.85
2019-01-16T08:23:57.538Z,72.94
2019-01-16T08:27:04.420Z,71.82
2019-01-16T08:30:04.904Z,71.88
2019-01-16T08:33:05.140Z,71.75
2019-01-16T08:36:03.112Z,73.12
2019-01-16T08:39:00.381Z,72.22
2019-01-16T08:41:55.240Z,72.22
2019-01-16T08:44:58.923Z,71.37
2019-01-16T08:47:59.488Z,71.42
2019-01-16T08:51:04.537Z,70.93
2019-01-16T08:53:56.209Z,71.63
2019-01-16T08:56:44.996Z,72.38
2019-01-16T08:59:49.769Z,72.38
2019-01-16T09:02:53.514Z,72.30
2019-01-16T09:05:42.196Z,73.73
2019-01-16T09:08:47.238Z,73.19
2019-01-16T09:11:45.121Z,73.95
2019-01-16T09:14:37.086Z,72.75
2019-01-16T09:17:26.111Z,71.48
2019-01-16T09:20:18.129Z,70.86
2019-01-16T09:23:15.623Z,70.39
2019-01-16T09:26:20.931Z,69.65
2019-01-16T09:29:15.327Z,68.37
2019-01-16T09:32:13.034Z,67.83
2019-01-16T09:35:04.740Z,68.46
2019-01-16T09:38:11.331Z,68.89
2019-01-16T09:41:00.247Z,67.75
2019-01-16T09:44:03.791Z,68.91
2019-01-16T09:46:54.845Z,68.86
2019-01-16T09:49:55.702Z,69.56
2019-01-16T09:52:53.293Z,69.34
2019-01-16T09:55:45.323Z,69.37
2019-01-16T09:58:33.940Z,69.85
2019-01-16T10:01:28.276Z,69.61
2019-01-16T10:04:26.027Z,68.45
2019-01-16T10:07:30.061Z,68.12
2019-01-16T10:10:21.266Z,67.30
2019-01-16T10:13:15.166Z,67.09
2019-01-16T10:16:06.544Z,67.55
2019-01-16T10:18:58.400Z,67.90
2019-01-16T10:21:53.174Z,67.44
2019-01-16T10:24:42.359Z,67.34
2019-01-16T10:27:31.364Z,67.20
2019-01-16T10:30:38.148Z,66.30
2019-01-16T10:33:26.907Z,66.78
2019-01-16T10:36:18.756Z,66.54
2019-01-16T10:39:09.329Z,66.84
2019-01-16T10:41:58.014Z,67.03
2019-01-16T10:44:52.592Z,66.54
2019-01-16T10:47:41.231Z,67.07
2019-01-16T10:50:32.436Z,66.89
2019-01-16T10:53:24.079Z,66.36
2019-01-16T10:56:12.908Z,65.60
2019-01-16T10:59:01.989Z,65.98
2019-01-16T11:01:50.831Z,65.44
2019-01-16T11:04:51.725Z,64.67
2019-01-16T11:07:40.633Z,66.28
2019-01-16T11:10:35.131Z,66.56
2019-01-16T11:13:26.698Z,67.05
2019-01-16T11:16:20.850Z,65.65
2019-01-16T11:19:22.009Z,64.79
2019-01-16T11:22:16.549Z,64.62
2019-01-16T11:25:22.218Z,64.63
2019-01-16T11:28:11.436Z,64.34
2019-01-16T11:31:08.916Z,63.08
2019-01-16T11:33:57.486Z,63.67
2019-01-16T11:36:58.141Z,63.12
2019-01-16T11:39:49.116Z,63.35
2019-01-16T11:42:40.638Z,64.70
2019-01-16T11:45:41.090Z,64.71
2019-01-16T11:48:42.210Z,63.38
2019-01-16T11:51:45.877Z,61.97
2019-01-16T11:54:34.556Z,63.64
2019-01-16T11:57:34.773Z,63.15
2019-01-16T12:00:32.594Z,62.38
2019-01-16T12:03:21.470Z,63.29
2019-01-16T12:06:24.839Z,63.39
2019-01-16T12:09:31.643Z,63.32
2019-01-16T12:12:35.040Z,62.71
2019-01-16T12:15:35.860Z,64.13
2019-01-16T12:18:36.513Z,62.96
2019-01-16T12:21:26.610Z,62.72
2019-01-16T12:24:33.426Z,62.50
2019-01-16T12:27:22.124Z,63.12
2019-01-16T12:30:26.284Z,62.48
2019-01-16T12:33:17.736Z,62.80
2019-01-16T12:36:19.018Z,63.05
2019-01-16T12:39:26.122Z,62.96
2019-01-16T12:42:20.718Z,62.80
2019-01-16T12:45:12.522Z,62.51
2019-01-16T12:48:10.246Z,62.55
2019-01-16T12:51:02.017Z,63.11
2019-01-16T12:53:59.994Z,63.03
2019-01-16T12:56:51.594Z,62.75
2019-01-16T12:59:40.727Z,62.15
2019-01-16T13:02:32.462Z,61.89
2019-01-16T13:05:33.375Z,60.84
2019-01-16T13:08:36.690Z,60.49
2019-01-16T13:11:25.928Z,61.10
2019-01-16T13:14:15.102Z,63.18
2019-01-16T13:17:06.758Z,63.55
2019-01-16T13:19:55.613Z,61.96
2019-01-16T13:22:46.235Z,60.55
2019-01-16T13:25:46.574Z,59.84
2019-01-16T13:28:40.885Z,60.18
2019-01-16T13:31:29.533Z,61.77
2019-01-16T13:34:20.999Z,61.92
2019-01-16T13:37:09.868Z,62.54
2019-01-16T13:39:58.856Z,62.24
2019-01-16T13:43:03.693Z,61.89
2019-01-16T13:46:04.314Z,61.77
2019-01-16T13:49:10.977Z,61.62
2019-01-16T13:52:00.440Z,62.23
2019-01-16T13:55:05.090Z,61.00
2019-01-16T13:58:05.873Z,60.86
2019-01-16T14:00:57.143Z,60.37
2019-01-16T14:03:55.002Z,59.85
2019-01-16T14:06:50.010Z,60.26
2019-01-16T14:09:38.675Z,60.46
2019-01-16T14:12:27.567Z,61.13
2019-01-16T14:15:26.162Z,61.19
2019-01-16T14:18:14.941Z,61.21
2019-01-16T14:21:12.486Z,60.53
2019-01-16T14:24:01.456Z,59.97
2019-01-16T14:26:53.017Z,60.63
2019-01-16T14:29:42.413Z,62.12
2019-01-16T14:32:31.437Z,63.17
2019-01-16T14:35:28.931Z,64.18
2019-01-16T14:38:20.597Z,61.99
2019-01-16T14:41:27.024Z,61.03
2019-01-16T14:44:18.801Z,61.53
2019-01-16T14:47:13.377Z,60.81
2019-01-16T14:50:08.108Z,61.71
2019-01-16T14:53:13.007Z,61.22
2019-01-16T14:56:07.649Z,60.43
2019-01-16T14:58:56.248Z,60.32
2019-01-16T15:01:47.593Z,60.24
2019-01-16T15:04:39.972Z,60.72
2019-01-16T15:07:38.261Z,60.92
2019-01-16T15:10:36.139Z,61.43
2019-01-16T15:13:25.262Z,61.80
2019-01-16T15:16:20.198Z,61.28
2019-01-16T15:19:20.577Z,60.60
2019-01-16T15:22:14.838Z,61.03
2019-01-16T15:25:09.332Z,60.61
2019-01-16T15:27:57.754Z,60.25
2019-01-16T15:31:01.659Z,60.03
2019-01-16T15:33:50.712Z,59.89
2019-01-16T15:36:39.762Z,59.99
2019-01-16T15:39:44.419Z,60.45
2019-01-16T15:42:48.835Z,61.25
2019-01-16T15:45:49.391Z,60.53
2019-01-16T15:48:41.002Z,61.51
2019-01-16T15:51:45.696Z,60.47
2019-01-16T15:54:40.471Z,60.79
2019-01-16T15:57:29.373Z,60.36
2019-01-16T16:00:18.822Z,60.41
2019-01-16T16:03:10.134Z,61.08
2019-01-16T16:05:58.990Z,61.71
2019-01-16T16:08:50.380Z,62.64
2019-01-16T16:11:44.730Z,62.43
2019-01-16T16:14:39.150Z,63.03
2019-01-16T16:17:28.000Z,63.75
2019-01-16T16:20:26.030Z,63.20
2019-01-16T16:23:14.770Z,62.73
2019-01-16T16:26:15.838Z,63.28
2019-01-16T16:29:04.492Z,63.76
2019-01-16T16:31:53.120Z,63.06
2019-01-16T16:34:47.267Z,62.15
2019-01-16T16:37:52.088Z,61.79
2019-01-16T16:40:41.019Z,61.56
2019-01-16T16:43:45.761Z,61.90
2019-01-16T16:46:38.675Z,61.31
2019-01-16T16:49:45.278Z,60.35
2019-01-16T16:52:36.684Z,60.59
2019-01-16T16:55:25.348Z,61.32
2019-01-16T16:58:32.173Z,61.75
2019-01-16T17:01:26.826Z,61.78
2019-01-16T17:04:15.789Z,61.08
2019-01-16T17:07:20.493Z,61.34
2019-01-16T17:10:15.347Z,59.67
2019-01-16T17:13:04.140Z,60.95
2019-01-16T17:16:01.724Z,61.55
2019-01-16T17:18:50.198Z,62.39
2019-01-16T17:21:41.942Z,61.37
2019-01-16T17:24:33.396Z,60.61
2019-01-16T17:27:38.397Z,60.68
2019-01-16T17:30:42.131Z,61.19
2019-01-16T17:33:30.882Z,60.49
2019-01-16T17:36:19.569Z,59.72
2019-01-16T17:39:15.376Z,60.48
2019-01-16T17:42:04.113Z,60.78
2019-01-16T17:44:53.129Z,61.28
2019-01-16T17:47:41.728Z,61.99
2019-01-16T17:50:48.510Z,61.17
2019-01-16T17:53:48.949Z,60.79
2019-01-16T17:56:58.493Z,61.57
2019-01-16T18:00:05.289Z,60.66
2019-01-16T18:02:54.004Z,60.38
2019-01-16T18:05:59.026Z,60.51
2019-01-16T18:08:50.612Z,62.54
2019-01-16T18:11:57.872Z,61.68
2019-01-16T18:15:04.227Z,60.79
2019-01-16T18:18:11.055Z,61.11
2019-01-16T18:20:59.968Z,62.09
2019-01-16T18:24:07.272Z,62.31
2019-01-16T18:26:55.814Z,62.93
2019-01-16T18:29:50.303Z,62.57
2019-01-16T18:32:39.297Z,62.68
2019-01-16T18:35:40.242Z,62.02
2019-01-16T18:38:29.480Z,61.20
2019-01-16T18:41:36.502Z,60.73
2019-01-16T18:44:37.247Z,61.10
2019-01-16T18:47:28.808Z,62.34
2019-01-16T18:50:20.459Z,61.71
2019-01-16T18:53:18.672Z,60.56
2019-01-16T18:56:13.003Z,60.04
2019-01-16T18:59:10.972Z,60.70
2019-01-16T19:02:00.286Z,60.60
2019-01-16T19:04:49.042Z,60.20
2019-01-16T19:07:54.096Z,60.60
2019-01-16T19:10:42.862Z,59.83
2019-01-16T19:13:40.222Z,59.20
2019-01-16T19:16:38.196Z,59.46
2019-01-16T19:19:27.461Z,60.01
2019-01-16T19:22:16.321Z,59.50
2019-01-16T19:25:20.945Z,59.37
2019-01-16T19:28:12.527Z,60.27
2019-01-16T19:31:03.777Z,61.48
2019-01-16T19:33:55.225Z,61.25
2019-01-16T19:36:44.428Z,61.32
2019-01-16T19:39:36.603Z,62.18
2019-01-16T19:42:25.708Z,61.52
2019-01-16T19:45:20.336Z,62.97
2019-01-16T19:48:14.656Z,62.31
2019-01-16T19:51:03.394Z,64.57
2019-01-16T19:53:55.412Z,64.04
2019-01-16T19:56:53.493Z,63.85
2019-01-16T19:59:45.140Z,62.74
2019-01-16T20:02:33.960Z,62.16
2019-01-16T20:05:28.919Z,62.15
2019-01-16T20:08:17.783Z,62.35
2019-01-16T20:11:12.779Z,61.45
2019-01-16T20:14:01.497Z,61.30
2019-01-16T20:17:02.416Z,60.91
2019-01-16T20:19:53.956Z,60.64
2019-01-16T20:22:51.548Z,61.19
2019-01-16T20:25:56.333Z,61.45
2019-01-16T20:28:47.844Z,61.41
2019-01-16T20:31:42.551Z,61.03
2019-01-16T20:34:34.244Z,60.00
2019-01-16T20:37:25.783Z,59.72
2019-01-16T20:40:15.189Z,59.83
2019-01-16T20:43:12.445Z,60.11
2019-01-16T20:46:04.138Z,60.76
2019-01-16T20:49:11.082Z,61.57
2019-01-16T20:52:11.840Z,61.29
2019-01-16T20:55:09.446Z,61.69
2019-01-16T20:58:14.588Z,61.79
2019-01-16T21:01:09.066Z,62.05
2019-01-16T21:04:15.965Z,61.19
2019-01-16T21:07:13.550Z,60.46
2019-01-16T21:10:05.431Z,60.77
2019-01-16T21:13:00.212Z,62.19
2019-01-16T21:15:51.988Z,63.29
2019-01-16T21:18:55.244Z,63.07
2019-01-16T21:21:44.172Z,62.87
2019-01-16T21:24:48.570Z,63.17
2019-01-16T21:27:37.395Z,62.72
2019-01-16T21:30:41.182Z,63.22
2019-01-16T21:33:30.047Z,63.35
2019-01-16T21:36:36.985Z,63.05
2019-01-16T21:39:43.829Z,63.53
2019-01-16T21:42:32.579Z,63.32
2019-01-16T21:45:26.874Z,63.70
2019-01-16T21:48:21.745Z,64.65
2019-01-16T21:51:10.305Z,65.69
2019-01-16T21:54:13.769Z,65.13
2019-01-16T21:57:18.663Z,63.25
2019-01-16T22:00:34.281Z,63.25
2019-01-16T22:03:26.001Z,65.12
2019-01-16T22:06:17.629Z,65.28
2019-01-16T22:09:15.010Z,65.04
2019-01-16T22:12:08.483Z,64.19
2019-01-16T22:14:59.973Z,64.26
2019-01-16T22:17:51.835Z,64.29
2019-01-16T22:20:40.845Z,64.22
2019-01-16T22:23:38.280Z,64.41
2019-01-16T22:26:41.765Z,63.79
2019-01-16T22:29:46.242Z,63.72
2019-01-16T22:32:35.144Z,63.55
2019-01-16T22:35:40.217Z,62.56
2019-01-16T22:38:40.857Z,61.78
2019-01-16T22:41:35.990Z,62.66
2019-01-16T22:44:36.566Z,62.69
2019-01-16T22:47:40.194Z,63.54
2019-01-16T22:50:35.342Z,62.89
2019-01-16T22:53:43.414Z,62.71
2019-01-16T22:56:32.665Z,62.65
2019-01-16T22:59:30.249Z,62.81
2019-01-16T23:02:35.081Z,62.25
2019-01-16T23:05:24.051Z,63.01
2019-01-16T23:08:28.121Z,64.04
2019-01-16T23:11:33.235Z,63.78
2019-01-16T23:14:38.104Z,63.27
2019-01-16T23:17:35.665Z,63.27
2019-01-16T23:20:27.088Z,63.76
2019-01-16T23:23:17.128Z,63.96
2019-01-16T23:26:21.840Z,64.14
2019-01-16T23:29:20.401Z,63.51
2019-01-16T23:32:09.248Z,63.85
2019-01-16T23:34:58.123Z,63.32
2019-01-16T23:37:46.969Z,62.37
2019-01-16T23:40:35.992Z,62.48
2019-01-16T23:43:24.955Z,63.43
2019-01-16T23:46:32.163Z,62.37
2019-01-16T23:49:27.167Z,61.89
2019-01-16T23:52:15.724Z,64.00
2019-01-16T23:55:19.827Z,63.67
2019-01-16T23:58:11.377Z,63.88
